sensor_id;sensor_type;location;lat;lon;timestamp;P1;durP1;ratioP1;P2;durP2;ratioP2
30307;SDS011;17114;52.314;8.910;2023-01-01T00:00:56;16.90;;;6.97;;
30307;SDS011;17114;52.314;8.910;2023-01-01T00:03:24;16.08;;;6.28;;
30307;SDS011;17114;52.314;8.910;2023-01-01T00:05:51;16.25;;;5.47;;
30307;SDS011;17114;52.314;8.910;2023-01-01T00:08:18;14.35;;;5.60;;
30307;SDS011;17114;52.314;8.910;2023-01-01T00:10:47;17.58;;;5.57;;
30307;SDS011;17114;52.314;8.910;2023-01-01T00:13:18;14.48;;;5.75;;
30307;SDS011;17114;52.314;8.910;2023-01-01T00:15:46;12.27;;;5.05;;
30307;SDS011;17114;52.314;8.910;2023-01-01T00:18:13;11.85;;;5.10;;
30307;SDS011;17114;52.314;8.910;2023-01-01T00:20:40;12.68;;;4.72;;
30307;SDS011;17114;52.314;8.910;2023-01-01T00:23:08;15.75;;;4.65;;
30307;SDS011;17114;52.314;8.910;2023-01-01T00:25:35;11.73;;;3.90;;
30307;SDS011;17114;52.314;8.910;2023-01-01T00:28:05;11.23;;;4.78;;
30307;SDS011;17114;52.314;8.910;2023-01-01T00:30:38;12.30;;;4.85;;
30307;SDS011;17114;52.314;8.910;2023-01-01T00:33:06;15.35;;;4.63;;
30307;SDS011;17114;52.314;8.910;2023-01-01T00:35:34;10.95;;;4.10;;
30307;SDS011;17114;52.314;8.910;2023-01-01T00:38:04;13.32;;;4.85;;
30307;SDS011;17114;52.314;8.910;2023-01-01T00:40:36;17.15;;;4.97;;
30307;SDS011;17114;52.314;8.910;2023-01-01T00:43:04;12.38;;;4.50;;
30307;SDS011;17114;52.314;8.910;2023-01-01T00:45:32;15.40;;;4.05;;
30307;SDS011;17114;52.314;8.910;2023-01-01T00:47:59;11.35;;;4.47;;
30307;SDS011;17114;52.314;8.910;2023-01-01T00:50:27;17.02;;;4.30;;
30307;SDS011;17114;52.314;8.910;2023-01-01T00:52:57;13.57;;;4.90;;
30307;SDS011;17114;52.314;8.910;2023-01-01T00:55:26;16.23;;;5.28;;
30307;SDS011;17114;52.314;8.910;2023-01-01T00:57:55;13.63;;;4.43;;
30307;SDS011;17114;52.314;8.910;2023-01-01T01:00:22;20.60;;;4.93;;
30307;SDS011;17114;52.314;8.910;2023-01-01T01:02:50;16.70;;;5.57;;
30307;SDS011;17114;52.314;8.910;2023-01-01T01:05:18;10.90;;;5.22;;
30307;SDS011;17114;52.314;8.910;2023-01-01T01:07:45;14.32;;;5.85;;
30307;SDS011;17114;52.314;8.910;2023-01-01T01:10:13;10.25;;;5.55;;
30307;SDS011;17114;52.314;8.910;2023-01-01T01:12:53;16.95;;;5.57;;
30307;SDS011;17114;52.314;8.910;2023-01-01T01:15:25;13.00;;;5.93;;
30307;SDS011;17114;52.314;8.910;2023-01-01T01:17:53;15.02;;;5.25;;
30307;SDS011;17114;52.314;8.910;2023-01-01T01:20:21;17.83;;;6.20;;
30307;SDS011;17114;52.314;8.910;2023-01-01T01:22:48;13.32;;;5.47;;
30307;SDS011;17114;52.314;8.910;2023-01-01T01:25:16;15.15;;;6.32;;
30307;SDS011;17114;52.314;8.910;2023-01-01T01:27:44;16.38;;;5.55;;
30307;SDS011;17114;52.314;8.910;2023-01-01T01:30:20;19.38;;;6.25;;
30307;SDS011;17114;52.314;8.910;2023-01-01T01:32:56;15.57;;;6.30;;
30307;SDS011;17114;52.314;8.910;2023-01-01T01:35:26;16.60;;;6.90;;
30307;SDS011;17114;52.314;8.910;2023-01-01T01:37:56;18.92;;;6.93;;
30307;SDS011;17114;52.314;8.910;2023-01-01T01:40:23;20.02;;;6.88;;
30307;SDS011;17114;52.314;8.910;2023-01-01T01:42:51;13.80;;;6.60;;
30307;SDS011;17114;52.314;8.910;2023-01-01T01:45:19;21.42;;;7.68;;
30307;SDS011;17114;52.314;8.910;2023-01-01T01:47:53;15.48;;;7.10;;
30307;SDS011;17114;52.314;8.910;2023-01-01T01:50:32;21.08;;;6.80;;
30307;SDS011;17114;52.314;8.910;2023-01-01T01:53:08;16.50;;;6.55;;
30307;SDS011;17114;52.314;8.910;2023-01-01T01:55:50;21.20;;;7.35;;
30307;SDS011;17114;52.314;8.910;2023-01-01T01:58:39;17.02;;;6.90;;
30307;SDS011;17114;52.314;8.910;2023-01-01T02:01:09;17.90;;;6.40;;
30307;SDS011;17114;52.314;8.910;2023-01-01T02:03:48;21.02;;;7.07;;
30307;SDS011;17114;52.314;8.910;2023-01-01T02:08:58;18.00;;;7.00;;
30307;SDS011;17114;52.314;8.910;2023-01-01T02:11:27;18.73;;;6.50;;
30307;SDS011;17114;52.314;8.910;2023-01-01T02:13:54;18.75;;;6.95;;
30307;SDS011;17114;52.314;8.910;2023-01-01T02:16:26;16.88;;;6.70;;
30307;SDS011;17114;52.314;8.910;2023-01-01T02:20:20;13.95;;;6.13;;
30307;SDS011;17114;52.314;8.910;2023-01-01T02:30:26;22.33;;;6.82;;
30307;SDS011;17114;52.314;8.910;2023-01-01T02:32:57;18.48;;;6.50;;
30307;SDS011;17114;52.314;8.910;2023-01-01T02:35:29;13.63;;;6.15;;
30307;SDS011;17114;52.314;8.910;2023-01-01T02:38:07;15.57;;;5.80;;
30307;SDS011;17114;52.314;8.910;2023-01-01T02:40:55;16.90;;;6.22;;
30307;SDS011;17114;52.314;8.910;2023-01-01T02:43:31;13.27;;;5.65;;
30307;SDS011;17114;52.314;8.910;2023-01-01T02:45:59;13.88;;;5.72;;
30307;SDS011;17114;52.314;8.910;2023-01-01T02:48:37;18.33;;;6.55;;
30307;SDS011;17114;52.314;8.910;2023-01-01T02:59:52;13.18;;;5.95;;
30307;SDS011;17114;52.314;8.910;2023-01-01T03:05:43;25.15;;;6.28;;
30307;SDS011;17114;52.314;8.910;2023-01-01T03:08:57;14.80;;;5.97;;
30307;SDS011;17114;52.314;8.910;2023-01-01T03:19:42;15.48;;;4.82;;
30307;SDS011;17114;52.314;8.910;2023-01-01T03:22:16;17.63;;;4.95;;
30307;SDS011;17114;52.314;8.910;2023-01-01T03:24:53;10.25;;;4.40;;
30307;SDS011;17114;52.314;8.910;2023-01-01T03:27:27;14.52;;;5.53;;
30307;SDS011;17114;52.314;8.910;2023-01-01T03:30:04;14.32;;;4.68;;
30307;SDS011;17114;52.314;8.910;2023-01-01T03:32:38;8.43;;;4.07;;
30307;SDS011;17114;52.314;8.910;2023-01-01T03:38:22;9.50;;;4.22;;
30307;SDS011;17114;52.314;8.910;2023-01-01T03:40:57;11.45;;;4.63;;
30307;SDS011;17114;52.314;8.910;2023-01-01T03:43:53;14.63;;;4.25;;
30307;SDS011;17114;52.314;8.910;2023-01-01T03:46:30;12.43;;;4.47;;
30307;SDS011;17114;52.314;8.910;2023-01-01T03:49:01;9.77;;;3.50;;
30307;SDS011;17114;52.314;8.910;2023-01-01T03:54:35;9.30;;;3.47;;
30307;SDS011;17114;52.314;8.910;2023-01-01T03:57:25;12.85;;;3.67;;
30307;SDS011;17114;52.314;8.910;2023-01-01T04:00:08;12.32;;;3.83;;
30307;SDS011;17114;52.314;8.910;2023-01-01T04:02:56;14.20;;;2.83;;
30307;SDS011;17114;52.314;8.910;2023-01-01T04:05:25;10.07;;;3.47;;
30307;SDS011;17114;52.314;8.910;2023-01-01T04:07:54;12.75;;;3.03;;
30307;SDS011;17114;52.314;8.910;2023-01-01T04:10:22;7.30;;;2.65;;
30307;SDS011;17114;52.314;8.910;2023-01-01T04:12:52;8.52;;;3.15;;
30307;SDS011;17114;52.314;8.910;2023-01-01T04:15:26;10.43;;;3.13;;
30307;SDS011;17114;52.314;8.910;2023-01-01T04:17:54;7.93;;;2.90;;
30307;SDS011;17114;52.314;8.910;2023-01-01T04:20:23;10.80;;;3.22;;
30307;SDS011;17114;52.314;8.910;2023-01-01T04:22:54;8.00;;;2.65;;
30307;SDS011;17114;52.314;8.910;2023-01-01T04:25:23;9.40;;;2.53;;
30307;SDS011;17114;52.314;8.910;2023-01-01T04:27:51;11.88;;;2.55;;
30307;SDS011;17114;52.314;8.910;2023-01-01T04:30:18;5.00;;;2.55;;
30307;SDS011;17114;52.314;8.910;2023-01-01T04:32:46;9.43;;;2.67;;
30307;SDS011;17114;52.314;8.910;2023-01-01T04:35:13;8.32;;;2.40;;
30307;SDS011;17114;52.314;8.910;2023-01-01T04:37:42;6.90;;;2.38;;
30307;SDS011;17114;52.314;8.910;2023-01-01T04:40:10;9.48;;;2.38;;
30307;SDS011;17114;52.314;8.910;2023-01-01T04:42:39;5.93;;;2.15;;
30307;SDS011;17114;52.314;8.910;2023-01-01T04:45:07;11.07;;;3.10;;
30307;SDS011;17114;52.314;8.910;2023-01-01T04:47:37;6.38;;;1.98;;
30307;SDS011;17114;52.314;8.910;2023-01-01T04:50:07;8.10;;;2.90;;
30307;SDS011;17114;52.314;8.910;2023-01-01T04:52:35;5.38;;;2.20;;
30307;SDS011;17114;52.314;8.910;2023-01-01T04:55:03;6.10;;;1.98;;
30307;SDS011;17114;52.314;8.910;2023-01-01T04:57:31;10.88;;;2.60;;
30307;SDS011;17114;52.314;8.910;2023-01-01T04:59:59;6.15;;;2.17;;
30307;SDS011;17114;52.314;8.910;2023-01-01T05:02:26;9.48;;;1.85;;
30307;SDS011;17114;52.314;8.910;2023-01-01T05:04:54;6.65;;;1.98;;
30307;SDS011;17114;52.314;8.910;2023-01-01T05:07:21;7.22;;;2.03;;
30307;SDS011;17114;52.314;8.910;2023-01-01T05:09:48;7.75;;;2.03;;
30307;SDS011;17114;52.314;8.910;2023-01-01T05:12:16;9.73;;;2.63;;
30307;SDS011;17114;52.314;8.910;2023-01-01T05:14:43;7.75;;;1.90;;
30307;SDS011;17114;52.314;8.910;2023-01-01T05:17:10;6.00;;;1.77;;
30307;SDS011;17114;52.314;8.910;2023-01-01T05:19:38;8.30;;;2.08;;
30307;SDS011;17114;52.314;8.910;2023-01-01T05:22:06;5.28;;;2.00;;
30307;SDS011;17114;52.314;8.910;2023-01-01T05:24:36;4.63;;;1.67;;
30307;SDS011;17114;52.314;8.910;2023-01-01T05:27:03;4.68;;;1.80;;
30307;SDS011;17114;52.314;8.910;2023-01-01T05:29:31;6.07;;;1.95;;
30307;SDS011;17114;52.314;8.910;2023-01-01T05:31:58;8.15;;;1.90;;
30307;SDS011;17114;52.314;8.910;2023-01-01T05:34:25;5.50;;;1.80;;
30307;SDS011;17114;52.314;8.910;2023-01-01T05:36:53;7.72;;;2.00;;
30307;SDS011;17114;52.314;8.910;2023-01-01T05:39:21;7.03;;;1.88;;
30307;SDS011;17114;52.314;8.910;2023-01-01T05:41:49;5.25;;;1.67;;
30307;SDS011;17114;52.314;8.910;2023-01-01T05:44:17;8.13;;;1.95;;
30307;SDS011;17114;52.314;8.910;2023-01-01T05:46:45;4.40;;;1.60;;
30307;SDS011;17114;52.314;8.910;2023-01-01T05:49:12;5.50;;;1.90;;
30307;SDS011;17114;52.314;8.910;2023-01-01T05:51:40;9.00;;;2.20;;
30307;SDS011;17114;52.314;8.910;2023-01-01T05:54:09;3.47;;;1.52;;
30307;SDS011;17114;52.314;8.910;2023-01-01T05:56:35;7.85;;;1.70;;
30307;SDS011;17114;52.314;8.910;2023-01-01T05:59:02;3.17;;;1.60;;
30307;SDS011;17114;52.314;8.910;2023-01-01T06:01:30;5.30;;;1.73;;
30307;SDS011;17114;52.314;8.910;2023-01-01T06:03:58;4.97;;;1.58;;
30307;SDS011;17114;52.314;8.910;2023-01-01T06:06:27;7.93;;;1.70;;
30307;SDS011;17114;52.314;8.910;2023-01-01T06:08:57;8.60;;;1.92;;
30307;SDS011;17114;52.314;8.910;2023-01-01T06:11:26;4.85;;;1.58;;
30307;SDS011;17114;52.314;8.910;2023-01-01T06:13:55;5.38;;;1.60;;
30307;SDS011;17114;52.314;8.910;2023-01-01T06:16:24;6.32;;;1.73;;
30307;SDS011;17114;52.314;8.910;2023-01-01T06:18:53;3.50;;;1.60;;
30307;SDS011;17114;52.314;8.910;2023-01-01T06:21:23;4.15;;;1.70;;
30307;SDS011;17114;52.314;8.910;2023-01-01T06:23:53;6.05;;;1.83;;
30307;SDS011;17114;52.314;8.910;2023-01-01T06:26:24;6.63;;;1.60;;
30307;SDS011;17114;52.314;8.910;2023-01-01T06:28:56;4.22;;;1.38;;
30307;SDS011;17114;52.314;8.910;2023-01-01T06:31:25;6.20;;;1.55;;
30307;SDS011;17114;52.314;8.910;2023-01-01T06:33:53;5.78;;;1.63;;
30307;SDS011;17114;52.314;8.910;2023-01-01T06:36:22;5.28;;;1.58;;
30307;SDS011;17114;52.314;8.910;2023-01-01T06:38:51;4.70;;;1.77;;
30307;SDS011;17114;52.314;8.910;2023-01-01T06:41:25;5.50;;;1.70;;
30307;SDS011;17114;52.314;8.910;2023-01-01T06:43:54;5.97;;;1.70;;
30307;SDS011;17114;52.314;8.910;2023-01-01T06:46:23;4.35;;;1.55;;
30307;SDS011;17114;52.314;8.910;2023-01-01T06:48:54;6.75;;;1.20;;
30307;SDS011;17114;52.314;8.910;2023-01-01T06:51:28;5.75;;;1.98;;
30307;SDS011;17114;52.314;8.910;2023-01-01T06:53:57;13.63;;;2.00;;
30307;SDS011;17114;52.314;8.910;2023-01-01T06:56:26;4.55;;;1.52;;
30307;SDS011;17114;52.314;8.910;2023-01-01T06:58:53;7.82;;;1.70;;
30307;SDS011;17114;52.314;8.910;2023-01-01T07:01:21;5.63;;;1.92;;
30307;SDS011;17114;52.314;8.910;2023-01-01T07:06:20;2.80;;;1.50;;
30307;SDS011;17114;52.314;8.910;2023-01-01T07:08:49;6.35;;;1.50;;
30307;SDS011;17114;52.314;8.910;2023-01-01T07:11:17;7.57;;;2.45;;
30307;SDS011;17114;52.314;8.910;2023-01-01T07:13:45;7.05;;;1.70;;
30307;SDS011;17114;52.314;8.910;2023-01-01T07:16:13;5.72;;;1.60;;
30307;SDS011;17114;52.314;8.910;2023-01-01T07:18:40;8.98;;;2.33;;
30307;SDS011;17114;52.314;8.910;2023-01-01T07:23:55;3.97;;;1.55;;
30307;SDS011;17114;52.314;8.910;2023-01-01T07:26:24;10.93;;;2.13;;
30307;SDS011;17114;52.314;8.910;2023-01-01T07:28:53;3.13;;;1.40;;
30307;SDS011;17114;52.314;8.910;2023-01-01T07:31:29;7.82;;;1.92;;
30307;SDS011;17114;52.314;8.910;2023-01-01T07:33:57;9.57;;;1.95;;
30307;SDS011;17114;52.314;8.910;2023-01-01T07:36:25;5.00;;;1.67;;
30307;SDS011;17114;52.314;8.910;2023-01-01T07:38:52;7.60;;;1.88;;
30307;SDS011;17114;52.314;8.910;2023-01-01T07:41:20;3.25;;;1.50;;
30307;SDS011;17114;52.314;8.910;2023-01-01T07:43:47;4.03;;;1.55;;
30307;SDS011;17114;52.314;8.910;2023-01-01T07:46:14;7.38;;;1.88;;
30307;SDS011;17114;52.314;8.910;2023-01-01T07:48:44;9.32;;;1.80;;
30307;SDS011;17114;52.314;8.910;2023-01-01T07:51:12;6.85;;;2.17;;
30307;SDS011;17114;52.314;8.910;2023-01-01T07:53:39;5.25;;;1.55;;
30307;SDS011;17114;52.314;8.910;2023-01-01T07:56:07;3.63;;;1.48;;
30307;SDS011;17114;52.314;8.910;2023-01-01T07:58:41;5.53;;;2.10;;
30307;SDS011;17114;52.314;8.910;2023-01-01T08:01:09;4.43;;;1.60;;
30307;SDS011;17114;52.314;8.910;2023-01-01T08:03:37;4.70;;;1.70;;
30307;SDS011;17114;52.314;8.910;2023-01-01T08:06:10;5.55;;;2.05;;
30307;SDS011;17114;52.314;8.910;2023-01-01T08:08:39;5.10;;;1.95;;
30307;SDS011;17114;52.314;8.910;2023-01-01T08:11:07;4.10;;;2.03;;
30307;SDS011;17114;52.314;8.910;2023-01-01T08:13:34;6.78;;;1.85;;
30307;SDS011;17114;52.314;8.910;2023-01-01T08:16:02;5.13;;;1.70;;
30307;SDS011;17114;52.314;8.910;2023-01-01T08:18:31;5.13;;;1.67;;
30307;SDS011;17114;52.314;8.910;2023-01-01T08:20:58;5.93;;;1.80;;
30307;SDS011;17114;52.314;8.910;2023-01-01T08:23:27;6.65;;;1.80;;
30307;SDS011;17114;52.314;8.910;2023-01-01T08:25:58;5.55;;;2.28;;
30307;SDS011;17114;52.314;8.910;2023-01-01T08:28:29;8.07;;;2.15;;
30307;SDS011;17114;52.314;8.910;2023-01-01T08:30:57;6.38;;;1.85;;
30307;SDS011;17114;52.314;8.910;2023-01-01T08:33:26;6.28;;;2.28;;
30307;SDS011;17114;52.314;8.910;2023-01-01T08:35:53;5.50;;;2.80;;
30307;SDS011;17114;52.314;8.910;2023-01-01T08:38:21;4.90;;;1.73;;
30307;SDS011;17114;52.314;8.910;2023-01-01T08:40:48;4.65;;;1.90;;
30307;SDS011;17114;52.314;8.910;2023-01-01T08:43:15;9.30;;;2.13;;
30307;SDS011;17114;52.314;8.910;2023-01-01T08:45:44;6.70;;;2.08;;
30307;SDS011;17114;52.314;8.910;2023-01-01T08:48:12;6.20;;;1.77;;
30307;SDS011;17114;52.314;8.910;2023-01-01T08:50:40;5.00;;;1.55;;
30307;SDS011;17114;52.314;8.910;2023-01-01T08:53:07;8.20;;;2.28;;
30307;SDS011;17114;52.314;8.910;2023-01-01T08:55:35;8.60;;;2.20;;
30307;SDS011;17114;52.314;8.910;2023-01-01T08:58:04;8.32;;;2.30;;
30307;SDS011;17114;52.314;8.910;2023-01-01T09:00:32;7.50;;;2.00;;
30307;SDS011;17114;52.314;8.910;2023-01-01T09:03:00;6.60;;;2.28;;
30307;SDS011;17114;52.314;8.910;2023-01-01T09:05:27;7.20;;;1.98;;
30307;SDS011;17114;52.314;8.910;2023-01-01T09:07:55;13.10;;;2.83;;
30307;SDS011;17114;52.314;8.910;2023-01-01T09:10:23;8.43;;;2.20;;
30307;SDS011;17114;52.314;8.910;2023-01-01T09:12:50;7.32;;;2.40;;
30307;SDS011;17114;52.314;8.910;2023-01-01T09:15:17;7.78;;;2.33;;
30307;SDS011;17114;52.314;8.910;2023-01-01T09:17:45;8.60;;;2.30;;
30307;SDS011;17114;52.314;8.910;2023-01-01T09:20:12;7.65;;;2.97;;
30307;SDS011;17114;52.314;8.910;2023-01-01T09:22:39;9.05;;;2.13;;
30307;SDS011;17114;52.314;8.910;2023-01-01T09:25:07;6.53;;;2.00;;
30307;SDS011;17114;52.314;8.910;2023-01-01T09:27:37;9.77;;;2.10;;
30307;SDS011;17114;52.314;8.910;2023-01-01T09:30:05;10.10;;;2.55;;
30307;SDS011;17114;52.314;8.910;2023-01-01T09:32:33;5.57;;;2.40;;
30307;SDS011;17114;52.314;8.910;2023-01-01T09:35:02;9.63;;;2.28;;
30307;SDS011;17114;52.314;8.910;2023-01-01T09:37:30;7.70;;;3.03;;
30307;SDS011;17114;52.314;8.910;2023-01-01T09:39:58;8.48;;;2.67;;
30307;SDS011;17114;52.314;8.910;2023-01-01T09:48:10;9.27;;;3.33;;
30307;SDS011;17114;52.314;8.910;2023-01-01T09:50:42;6.88;;;2.40;;
30307;SDS011;17114;52.314;8.910;2023-01-01T09:53:31;10.75;;;2.13;;
30307;SDS011;17114;52.314;8.910;2023-01-01T09:56:03;4.53;;;1.70;;
30307;SDS011;17114;52.314;8.910;2023-01-01T09:58:34;7.15;;;1.70;;
30307;SDS011;17114;52.314;8.910;2023-01-01T10:12:35;6.63;;;2.45;;
30307;SDS011;17114;52.314;8.910;2023-01-01T10:17:45;8.45;;;2.80;;
30307;SDS011;17114;52.314;8.910;2023-01-01T10:20:25;6.60;;;2.60;;
30307;SDS011;17114;52.314;8.910;2023-01-01T10:26:17;7.10;;;2.83;;
30307;SDS011;17114;52.314;8.910;2023-01-01T10:28:48;10.27;;;3.35;;
30307;SDS011;17114;52.314;8.910;2023-01-01T10:31:34;7.25;;;3.40;;
30307;SDS011;17114;52.314;8.910;2023-01-01T10:34:14;9.80;;;3.38;;
30307;SDS011;17114;52.314;8.910;2023-01-01T10:36:48;9.50;;;3.20;;
30307;SDS011;17114;52.314;8.910;2023-01-01T10:39:19;4.85;;;2.70;;
30307;SDS011;17114;52.314;8.910;2023-01-01T10:41:48;7.05;;;2.83;;
30307;SDS011;17114;52.314;8.910;2023-01-01T10:44:17;11.07;;;2.72;;
30307;SDS011;17114;52.314;8.910;2023-01-01T10:46:59;7.88;;;2.88;;
30307;SDS011;17114;52.314;8.910;2023-01-01T10:49:57;10.25;;;2.90;;
30307;SDS011;17114;52.314;8.910;2023-01-01T10:52:37;7.88;;;2.30;;
30307;SDS011;17114;52.314;8.910;2023-01-01T10:55:19;10.48;;;2.92;;
30307;SDS011;17114;52.314;8.910;2023-01-01T10:57:50;9.18;;;2.30;;
30307;SDS011;17114;52.314;8.910;2023-01-01T11:00:22;6.80;;;2.60;;
30307;SDS011;17114;52.314;8.910;2023-01-01T11:08:51;6.60;;;2.13;;
30307;SDS011;17114;52.314;8.910;2023-01-01T11:11:27;6.63;;;2.30;;
30307;SDS011;17114;52.314;8.910;2023-01-01T11:14:00;8.75;;;2.60;;
30307;SDS011;17114;52.314;8.910;2023-01-01T11:16:38;7.47;;;2.38;;
30307;SDS011;17114;52.314;8.910;2023-01-01T11:25:37;5.57;;;2.05;;
30307;SDS011;17114;52.314;8.910;2023-01-01T11:28:20;5.30;;;1.95;;
30307;SDS011;17114;52.314;8.910;2023-01-01T11:33:25;6.07;;;1.95;;
30307;SDS011;17114;52.314;8.910;2023-01-01T11:36:40;4.47;;;1.60;;
30307;SDS011;17114;52.314;8.910;2023-01-01T11:39:26;5.13;;;2.15;;
30307;SDS011;17114;52.314;8.910;2023-01-01T11:41:57;3.78;;;1.60;;
30307;SDS011;17114;52.314;8.910;2023-01-01T11:44:39;3.30;;;1.80;;
30307;SDS011;17114;52.314;8.910;2023-01-01T11:47:20;5.00;;;2.10;;
30307;SDS011;17114;52.314;8.910;2023-01-01T11:52:47;5.00;;;2.10;;
30307;SDS011;17114;52.314;8.910;2023-01-01T11:55:36;6.82;;;2.65;;
30307;SDS011;17114;52.314;8.910;2023-01-01T11:58:15;5.80;;;2.50;;
30307;SDS011;17114;52.314;8.910;2023-01-01T12:00:54;7.15;;;2.80;;
30307;SDS011;17114;52.314;8.910;2023-01-01T12:03:27;7.72;;;2.10;;
30307;SDS011;17114;52.314;8.910;2023-01-01T12:18:27;6.10;;;2.70;;
30307;SDS011;17114;52.314;8.910;2023-01-01T12:24:18;5.93;;;2.60;;
30307;SDS011;17114;52.314;8.910;2023-01-01T12:29:53;6.43;;;3.30;;
30307;SDS011;17114;52.314;8.910;2023-01-01T12:51:19;9.50;;;3.20;;
30307;SDS011;17114;52.314;8.910;2023-01-01T12:59:23;6.22;;;3.53;;
30307;SDS011;17114;52.314;8.910;2023-01-01T13:02:02;5.68;;;3.40;;
30307;SDS011;17114;52.314;8.910;2023-01-01T13:05:02;12.95;;;4.63;;
30307;SDS011;17114;52.314;8.910;2023-01-01T13:07:59;9.32;;;4.28;;
30307;SDS011;17114;52.314;8.910;2023-01-01T13:11:13;11.43;;;4.68;;
30307;SDS011;17114;52.314;8.910;2023-01-01T13:38:54;10.02;;;4.22;;
30307;SDS011;17114;52.314;8.910;2023-01-01T13:41:47;11.23;;;4.72;;
30307;SDS011;17114;52.314;8.910;2023-01-01T13:44:39;11.93;;;4.63;;
30307;SDS011;17114;52.314;8.910;2023-01-01T13:50:12;7.13;;;3.65;;
30307;SDS011;17114;52.314;8.910;2023-01-01T13:56:57;9.15;;;4.00;;
30307;SDS011;17114;52.314;8.910;2023-01-01T14:05:05;13.52;;;4.60;;
30307;SDS011;17114;52.314;8.910;2023-01-01T14:08:25;8.98;;;4.68;;
30307;SDS011;17114;52.314;8.910;2023-01-01T14:11:01;14.93;;;4.38;;
30307;SDS011;17114;52.314;8.910;2023-01-01T14:21:50;8.70;;;3.50;;
30307;SDS011;17114;52.314;8.910;2023-01-01T14:24:19;15.52;;;3.70;;
30307;SDS011;17114;52.314;8.910;2023-01-01T14:27:05;9.07;;;3.78;;
30307;SDS011;17114;52.314;8.910;2023-01-01T14:30:01;12.98;;;4.70;;
30307;SDS011;17114;52.314;8.910;2023-01-01T14:32:29;15.43;;;4.63;;
30307;SDS011;17114;52.314;8.910;2023-01-01T14:34:59;12.02;;;4.53;;
30307;SDS011;17114;52.314;8.910;2023-01-01T14:37:30;17.67;;;4.90;;
30307;SDS011;17114;52.314;8.910;2023-01-01T14:40:08;10.10;;;4.25;;
30307;SDS011;17114;52.314;8.910;2023-01-01T14:42:45;10.73;;;4.55;;
30307;SDS011;17114;52.314;8.910;2023-01-01T14:45:15;15.90;;;4.50;;
30307;SDS011;17114;52.314;8.910;2023-01-01T14:47:45;11.05;;;4.70;;
30307;SDS011;17114;52.314;8.910;2023-01-01T14:52:52;13.80;;;4.05;;
30307;SDS011;17114;52.314;8.910;2023-01-01T14:55:39;11.85;;;3.92;;
30307;SDS011;17114;52.314;8.910;2023-01-01T14:58:14;13.52;;;3.33;;
30307;SDS011;17114;52.314;8.910;2023-01-01T15:01:39;9.10;;;3.22;;
30307;SDS011;17114;52.314;8.910;2023-01-01T15:04:47;12.77;;;4.03;;
30307;SDS011;17114;52.314;8.910;2023-01-01T15:07:22;11.20;;;3.65;;
30307;SDS011;17114;52.314;8.910;2023-01-01T15:09:52;9.73;;;3.70;;
30307;SDS011;17114;52.314;8.910;2023-01-01T15:12:27;11.43;;;3.95;;
30307;SDS011;17114;52.314;8.910;2023-01-01T15:14:56;12.65;;;3.38;;
30307;SDS011;17114;52.314;8.910;2023-01-01T15:17:24;11.40;;;3.90;;
30307;SDS011;17114;52.314;8.910;2023-01-01T15:20:40;7.43;;;3.30;;
30307;SDS011;17114;52.314;8.910;2023-01-01T15:22:46;11.27;;;3.90;;
30307;SDS011;17114;52.314;8.910;2023-01-01T15:25:19;10.23;;;4.30;;
30307;SDS011;17114;52.314;8.910;2023-01-01T15:27:50;12.80;;;4.05;;
30307;SDS011;17114;52.314;8.910;2023-01-01T15:30:25;12.60;;;4.18;;
30307;SDS011;17114;52.314;8.910;2023-01-01T15:33:04;9.85;;;3.60;;
30307;SDS011;17114;52.314;8.910;2023-01-01T15:35:52;12.10;;;3.35;;
30307;SDS011;17114;52.314;8.910;2023-01-01T15:38:26;10.25;;;3.70;;
30307;SDS011;17114;52.314;8.910;2023-01-01T15:40:56;13.65;;;5.07;;
30307;SDS011;17114;52.314;8.910;2023-01-01T15:43:24;15.63;;;4.90;;
30307;SDS011;17114;52.314;8.910;2023-01-01T15:45:58;10.75;;;3.90;;
30307;SDS011;17114;52.314;8.910;2023-01-01T15:49:21;10.50;;;4.30;;
30307;SDS011;17114;52.314;8.910;2023-01-01T15:51:55;14.57;;;4.43;;
30307;SDS011;17114;52.314;8.910;2023-01-01T15:54:33;12.05;;;4.05;;
30307;SDS011;17114;52.314;8.910;2023-01-01T15:59:50;11.35;;;3.88;;
30307;SDS011;17114;52.314;8.910;2023-01-01T16:02:27;12.60;;;3.83;;
30307;SDS011;17114;52.314;8.910;2023-01-01T16:05:21;10.40;;;4.05;;
30307;SDS011;17114;52.314;8.910;2023-01-01T16:07:58;12.10;;;4.30;;
30307;SDS011;17114;52.314;8.910;2023-01-01T16:10:31;9.73;;;4.20;;
30307;SDS011;17114;52.314;8.910;2023-01-01T16:12:59;12.07;;;3.70;;
30307;SDS011;17114;52.314;8.910;2023-01-01T16:15:26;8.05;;;3.65;;
30307;SDS011;17114;52.314;8.910;2023-01-01T16:17:56;10.35;;;3.70;;
30307;SDS011;17114;52.314;8.910;2023-01-01T16:20:34;16.55;;;4.15;;
30307;SDS011;17114;52.314;8.910;2023-01-01T16:23:16;13.07;;;3.53;;
30307;SDS011;17114;52.314;8.910;2023-01-01T16:25:44;9.23;;;3.47;;
30307;SDS011;17114;52.314;8.910;2023-01-01T16:28:12;17.02;;;3.80;;
30307;SDS011;17114;52.314;8.910;2023-01-01T16:30:42;15.75;;;4.18;;
30307;SDS011;17114;52.314;8.910;2023-01-01T16:33:30;9.00;;;2.95;;
30307;SDS011;17114;52.314;8.910;2023-01-01T16:36:33;11.45;;;3.38;;
30307;SDS011;17114;52.314;8.910;2023-01-01T16:39:43;10.50;;;3.30;;
30307;SDS011;17114;52.314;8.910;2023-01-01T16:42:13;17.00;;;3.83;;
30307;SDS011;17114;52.314;8.910;2023-01-01T16:44:51;14.95;;;3.65;;
30307;SDS011;17114;52.314;8.910;2023-01-01T16:47:26;11.05;;;3.10;;
30307;SDS011;17114;52.314;8.910;2023-01-01T16:49:58;10.85;;;4.00;;
30307;SDS011;17114;52.314;8.910;2023-01-01T16:52:33;14.27;;;4.88;;
30307;SDS011;17114;52.314;8.910;2023-01-01T16:55:29;12.50;;;3.88;;
30307;SDS011;17114;52.314;8.910;2023-01-01T17:20:08;8.60;;;3.70;;
30307;SDS011;17114;52.314;8.910;2023-01-01T17:22:37;11.57;;;3.80;;
30307;SDS011;17114;52.314;8.910;2023-01-01T17:25:18;10.85;;;4.03;;
30307;SDS011;17114;52.314;8.910;2023-01-01T17:27:53;14.02;;;4.68;;
30307;SDS011;17114;52.314;8.910;2023-01-01T17:30:38;11.07;;;3.55;;
30307;SDS011;17114;52.314;8.910;2023-01-01T17:33:06;11.95;;;3.65;;
30307;SDS011;17114;52.314;8.910;2023-01-01T17:35:33;14.52;;;3.72;;
30307;SDS011;17114;52.314;8.910;2023-01-01T17:38:01;16.55;;;4.25;;
30307;SDS011;17114;52.314;8.910;2023-01-01T17:40:28;14.35;;;3.92;;
30307;SDS011;17114;52.314;8.910;2023-01-01T17:43:02;12.80;;;3.92;;
30307;SDS011;17114;52.314;8.910;2023-01-01T17:45:30;12.70;;;3.90;;
30307;SDS011;17114;52.314;8.910;2023-01-01T17:47:57;13.43;;;4.05;;
30307;SDS011;17114;52.314;8.910;2023-01-01T17:50:27;17.85;;;4.20;;
30307;SDS011;17114;52.314;8.910;2023-01-01T17:52:55;9.57;;;3.22;;
30307;SDS011;17114;52.314;8.910;2023-01-01T17:55:23;15.38;;;4.15;;
30307;SDS011;17114;52.314;8.910;2023-01-01T17:57:52;11.80;;;3.63;;
30307;SDS011;17114;52.314;8.910;2023-01-01T18:00:20;13.50;;;4.20;;
30307;SDS011;17114;52.314;8.910;2023-01-01T18:02:48;11.73;;;4.30;;
30307;SDS011;17114;52.314;8.910;2023-01-01T18:05:16;10.57;;;4.00;;
30307;SDS011;17114;52.314;8.910;2023-01-01T18:07:43;10.32;;;4.32;;
30307;SDS011;17114;52.314;8.910;2023-01-01T18:13:50;13.32;;;4.45;;
30307;SDS011;17114;52.314;8.910;2023-01-01T18:16:24;12.07;;;3.95;;
30307;SDS011;17114;52.314;8.910;2023-01-01T18:18:59;12.75;;;4.78;;
30307;SDS011;17114;52.314;8.910;2023-01-01T18:21:39;12.20;;;4.30;;
30307;SDS011;17114;52.314;8.910;2023-01-01T18:24:29;14.77;;;4.22;;
30307;SDS011;17114;52.314;8.910;2023-01-01T18:27:03;14.63;;;5.10;;
30307;SDS011;17114;52.314;8.910;2023-01-01T18:30:04;13.98;;;5.90;;
30307;SDS011;17114;52.314;8.910;2023-01-01T18:32:35;13.20;;;5.95;;
30307;SDS011;17114;52.314;8.910;2023-01-01T18:35:16;12.40;;;5.10;;
30307;SDS011;17114;52.314;8.910;2023-01-01T18:37:52;8.90;;;2.85;;
30307;SDS011;17114;52.314;8.910;2023-01-01T18:40:23;13.68;;;4.38;;